Time;durP1;ratioP1;P1;durP2;ratioP2;P2;SDS_P1;SDS_P2;PMS_P1;PMS_P2;Temp;Humidity;BMP_temperature;BMP_pressure;BME280_temperature;BME280_humidity;BME280_pressure;Samples;Min_cycle;Max_cycle;Signal;HPM_P1;HPM_P2
2022/12/02 00:00:26;;;;;;;47.42;24.67;;;5.10;99.90;;;;;;5055042;28;20040;-83
2022/12/02 00:02:54;;;;;;;48.10;23.83;;;4.50;99.90;;;;;;5055326;28;20076;-83
2022/12/02 00:05:33;;;;;;;47.22;24.17;;;4.50;99.90;;;;;;5054536;28;20028;-83
2022/12/02 00:08:10;;;;;;;44.53;23.30;;;4.50;99.90;;;;;;5055384;28;20063;-85
2022/12/02 00:10:36;;;;;;;43.28;22.63;;;4.50;99.90;;;;;;5055444;28;20170;-83
2022/12/02 00:13:19;;;;;;;46.38;24.23;;;5.10;99.90;;;;;;5055767;28;20041;-85
2022/12/02 00:15:48;;;;;;;45.45;22.63;;;4.50;99.90;;;;;;5073076;28;20101;-85
2022/12/02 00:18:15;;;;;;;43.53;23.02;;;4.60;99.90;;;;;;5054274;28;20045;-84
2022/12/02 00:20:42;;;;;;;48.95;23.83;;;4.40;99.90;;;;;;5039681;28;20413;-83
2022/12/02 00:23:08;;;;;;;48.50;23.58;;;5.00;99.90;;;;;;5040127;28;20114;-83
2022/12/02 00:25:34;;;;;;;48.90;24.98;;;4.40;99.90;;;;;;5057804;28;20029;-83
2022/12/02 00:28:00;;;;;;;47.35;23.08;;;5.30;99.90;;;;;;5039251;28;20040;-83
2022/12/02 00:30:26;;;;;;;44.88;22.60;;;4.40;99.90;;;;;;5039096;28;20040;-83
2022/12/02 00:32:51;;;;;;;48.20;23.52;;;4.40;99.90;;;;;;5072865;28;20036;-83
2022/12/02 00:35:17;;;;;;;47.00;23.85;;;4.30;99.90;;;;;;5057162;28;20096;-83
2022/12/02 00:37:43;;;;;;;47.45;23.40;;;4.80;99.90;;;;;;5022133;28;20036;-83
2022/12/02 00:40:09;;;;;;;49.50;23.65;;;4.20;99.90;;;;;;5072124;28;20048;-83
2022/12/02 00:42:35;;;;;;;47.83;24.58;;;4.20;99.90;;;;;;5039293;28;20072;-83
2022/12/02 00:47:45;;;;;;;50.95;25.08;;;4.20;99.90;;;;;;5057387;28;20047;-83
2022/12/02 00:50:11;;;;;;;51.42;25.67;;;4.20;99.90;;;;;;5039668;28;20045;-83
2022/12/02 00:52:37;;;;;;;51.42;23.70;;;4.40;99.90;;;;;;5077715;28;20048;-83
2022/12/02 00:55:04;;;;;;;51.10;24.15;;;4.40;99.90;;;;;;5078004;28;20040;-83
2022/12/02 00:57:29;;;;;;;50.78;26.30;;;4.10;99.90;;;;;;5047277;28;20044;-84
2022/12/02 00:59:55;;;;;;;50.85;25.60;;;4.90;99.90;;;;;;5078618;28;20059;-83
2022/12/02 01:02:21;;;;;;;58.38;24.73;;;4.00;99.90;;;;;;5078467;28;20086;-84
2022/12/02 01:04:46;;;;;;;53.08;26.08;;;4.00;99.90;;;;;;5046487;28;20048;-83
2022/12/02 01:07:13;;;;;;;59.05;25.67;;;4.80;99.90;;;;;;5076987;28;20052;-83
2022/12/02 01:09:40;;;;;;;52.22;23.83;;;4.00;99.90;;;;;;5043191;28;20127;-84
2022/12/02 01:12:06;;;;;;;55.22;24.60;;;4.40;99.90;;;;;;5074514;28;20685;-83
2022/12/02 01:14:32;;;;;;;55.13;25.77;;;4.00;99.90;;;;;;5057506;28;20500;-83
2022/12/02 01:16:57;;;;;;;57.20;25.88;;;3.90;99.90;;;;;;5043639;28;20036;-83
2022/12/02 01:19:23;;;;;;;56.30;25.73;;;3.90;99.90;;;;;;5040037;28;20044;-83
2022/12/02 01:21:49;;;;;;;57.67;25.88;;;3.90;99.90;;;;;;5044158;28;20078;-83
2022/12/02 01:24:15;;;;;;;57.67;25.50;;;4.30;99.90;;;;;;5076628;28;20082;-83
2022/12/02 01:26:41;;;;;;;52.55;24.73;;;4.20;99.90;;;;;;5027042;28;20120;-83
2022/12/02 01:29:06;;;;;;;56.83;26.73;;;3.90;99.90;;;;;;5059515;28;20488;-83
2022/12/02 01:31:33;;;;;;;51.65;25.27;;;3.90;99.90;;;;;;5059870;28;20439;-83
2022/12/02 01:33:58;;;;;;;54.72;25.77;;;3.80;99.90;;;;;;5058321;28;20493;-83
2022/12/02 01:36:24;;;;;;;57.42;25.83;;;3.80;99.90;;;;;;5032304;28;20040;-83
2022/12/02 01:38:50;;;;;;;55.75;25.52;;;3.80;99.90;;;;;;5025598;28;20461;-83
2022/12/02 01:41:16;;;;;;;55.95;25.10;;;3.80;99.90;;;;;;5058159;28;20396;-83
2022/12/02 01:43:42;;;;;;;56.70;25.45;;;3.80;99.90;;;;;;5058547;28;20502;-83
2022/12/02 01:46:08;;;;;;;51.50;24.27;;;4.70;99.90;;;;;;5026037;28;20036;-83
2022/12/02 01:48:35;;;;;;;55.42;25.70;;;3.80;99.90;;;;;;5040636;28;20032;-83
2022/12/02 01:51:02;;;;;;;60.17;26.00;;;4.00;99.90;;;;;;5057765;28;20106;-83
2022/12/02 01:53:28;;;;;;;55.10;24.95;;;3.80;99.90;;;;;;5041370;28;20089;-84
2022/12/02 01:55:54;;;;;;;53.28;24.42;;;3.80;99.90;;;;;;5049556;28;20484;-83
2022/12/02 01:58:24;;;;;;;54.20;24.48;;;3.80;99.90;;;;;;5040743;28;20047;-84
2022/12/02 02:00:50;;;;;;;52.67;24.95;;;3.80;99.90;;;;;;5074924;28;20078;-83
2022/12/02 02:03:15;;;;;;;53.25;23.98;;;3.80;99.90;;;;;;5378467;22;20024;-81
2022/12/02 02:05:41;;;;;;;53.00;24.88;;;3.80;99.90;;;;;;5026305;28;20068;-81
2022/12/02 02:08:11;;;;;;;51.75;25.00;;;3.80;99.90;;;;;;5044935;28;20049;-81
2022/12/02 02:10:39;;;;;;;52.13;25.13;;;5.30;99.90;;;;;;5042104;28;20080;-82
2022/12/02 02:13:06;;;;;;;53.45;23.88;;;3.70;99.90;;;;;;5026911;28;20053;-81
2022/12/02 02:15:32;;;;;;;57.60;24.23;;;3.70;99.90;;;;;;5043096;28;20037;-81
2022/12/02 02:17:58;;;;;;;55.75;24.83;;;4.80;99.90;;;;;;5035673;28;20053;-81
2022/12/02 02:20:25;;;;;;;56.72;24.35;;;4.20;99.90;;;;;;5024410;28;20041;-81
2022/12/02 02:23:03;;;;;;;55.97;24.88;;;3.70;99.90;;;;;;5021178;28;20047;-81
2022/12/02 02:25:29;;;;;;;57.15;24.27;;;3.10;99.90;;;;;;5043412;28;20041;-81
2022/12/02 02:27:57;;;;;;;56.92;24.70;;;3.80;99.90;;;;;;5038723;28;20037;-81
2022/12/02 02:30:26;;;;;;;55.55;25.35;;;3.70;99.90;;;;;;5031973;28;20045;-81
2022/12/02 02:32:52;;;;;;;59.13;24.30;;;3.70;99.90;;;;;;5041788;28;20042;-81
2022/12/02 02:35:19;;;;;;;62.00;25.65;;;4.50;99.90;;;;;;5025397;28;20059;-81
2022/12/02 02:37:47;;;;;;;53.72;24.70;;;3.70;99.90;;;;;;5024025;28;20094;-81
2022/12/02 02:40:15;;;;;;;54.90;24.33;;;3.70;99.90;;;;;;5034997;28;20432;-81
2022/12/02 02:42:47;;;;;;;56.38;25.73;;;3.90;99.90;;;;;;5040728;28;21920;-81
2022/12/02 02:45:13;;;;;;;51.97;26.25;;;3.70;99.90;;;;;;5043673;28;20041;-82
2022/12/02 02:47:39;;;;;;;57.08;25.15;;;3.90;99.90;;;;;;5041448;28;20110;-81
2022/12/02 02:50:06;;;;;;;58.63;25.83;;;3.60;99.90;;;;;;5033505;28;20473;-81
2022/12/02 02:52:32;;;;;;;59.10;25.67;;;3.60;99.90;;;;;;5023906;28;20045;-81
2022/12/02 02:54:58;;;;;;;52.03;24.52;;;3.60;99.90;;;;;;5025857;28;20056;-81
2022/12/02 02:57:24;;;;;;;52.60;23.70;;;3.80;99.90;;;;;;5024882;28;20037;-81
2022/12/02 02:59:52;;;;;;;50.70;22.65;;;4.60;99.90;;;;;;5042085;28;20078;-81
2022/12/02 03:02:19;;;;;;;52.28;22.40;;;3.50;99.90;;;;;;5042402;28;20346;-81
2022/12/02 03:04:45;;;;;;;50.58;23.50;;;3.60;99.90;;;;;;5023939;28;20048;-81
2022/12/02 03:07:12;;;;;;;48.90;23.70;;;3.50;99.90;;;;;;5033762;28;20056;-81
2022/12/02 03:09:38;;;;;;;50.95;24.05;;;3.50;99.90;;;;;;5033753;28;20121;-81
2022/12/02 03:12:05;;;;;;;50.92;23.08;;;4.80;99.90;;;;;;5043695;28;20041;-81
2022/12/02 03:14:31;;;;;;;50.15;23.48;;;3.80;99.90;;;;;;5025610;28;20060;-81
2022/12/02 03:17:00;;;;;;;49.83;23.10;;;3.90;99.90;;;;;;5034370;28;20045;-81
2022/12/02 03:19:27;;;;;;;53.65;23.63;;;3.50;99.90;;;;;;5024891;28;20052;-81
2022/12/02 03:21:53;;;;;;;50.45;23.30;;;3.50;99.90;;;;;;5027843;28;20041;-81
2022/12/02 03:24:19;;;;;;;45.30;21.70;;;4.90;99.90;;;;;;5024940;28;20045;-81
2022/12/02 03:26:45;;;;;;;47.95;21.45;;;3.50;99.90;;;;;;5041367;28;20040;-81
2022/12/02 03:29:13;;;;;;;44.28;21.00;;;3.50;99.90;;;;;;5025135;28;20119;-81
2022/12/02 03:31:38;;;;;;;43.30;19.90;;;3.50;99.90;;;;;;5056809;28;20129;-81
2022/12/02 03:34:06;;;;;;;41.15;20.45;;;4.80;99.90;;;;;;5031105;28;20085;-81
2022/12/02 03:36:33;;;;;;;40.28;20.13;;;3.50;99.90;;;;;;5034750;28;20041;-81
2022/12/02 03:38:59;;;;;;;40.15;19.92;;;3.50;99.90;;;;;;5033719;28;20045;-81
2022/12/02 03:41:25;;;;;;;41.97;19.80;;;3.50;99.90;;;;;;5025441;28;20041;-81
2022/12/02 03:43:52;;;;;;;33.47;17.58;;;4.60;99.90;;;;;;5024681;28;20145;-81
2022/12/02 03:46:17;;;;;;;32.90;18.08;;;4.10;99.90;;;;;;5026357;28;20124;-82
2022/12/02 03:48:44;;;;;;;39.53;19.10;;;3.40;99.90;;;;;;5024355;28;20478;-81
2022/12/02 03:51:12;;;;;;;38.10;18.67;;;3.30;99.90;;;;;;5057699;28;20068;-81
2022/12/02 03:53:38;;;;;;;37.97;18.30;;;3.30;99.90;;;;;;5024130;28;20045;-81
2022/12/02 03:56:06;;;;;;;40.55;18.63;;;3.30;99.90;;;;;;5027718;28;20127;-81
2022/12/02 03:58:38;;;;;;;33.22;17.77;;;3.30;99.90;;;;;;5040737;28;20077;-81
2022/12/02 04:01:04;;;;;;;36.03;18.23;;;3.30;99.90;;;;;;5026704;28;20423;-81
2022/12/02 04:03:30;;;;;;;37.03;18.20;;;3.30;99.90;;;;;;5040624;28;20041;-81
2022/12/02 04:05:56;;;;;;;38.13;18.90;;;4.40;99.90;;;;;;5025687;28;20529;-81
2022/12/02 04:08:22;;;;;;;35.85;17.45;;;3.20;99.90;;;;;;5042191;28;20033;-81
2022/12/02 04:10:48;;;;;;;34.45;17.52;;;3.80;99.90;;;;;;5043083;28;20060;-81
2022/12/02 04:13:13;;;;;;;41.55;18.42;;;3.60;99.90;;;;;;5040350;28;20037;-82
2022/12/02 04:15:39;;;;;;;36.22;18.48;;;3.20;99.90;;;;;;5023735;28;20045;-81
2022/12/02 04:18:05;;;;;;;34.47;18.02;;;3.20;99.90;;;;;;5032097;28;20142;-81
2022/12/02 04:20:31;;;;;;;35.38;18.50;;;3.90;99.90;;;;;;5041817;28;20044;-81
2022/12/02 04:22:56;;;;;;;36.75;18.63;;;3.20;99.90;;;;;;5026121;28;20098;-81
2022/12/02 04:25:22;;;;;;;31.67;16.85;;;4.30;99.90;;;;;;5022547;28;20041;-82
2022/12/02 04:27:47;;;;;;;35.35;17.60;;;3.70;99.90;;;;;;5033510;28;20120;-81
2022/12/02 04:30:13;;;;;;;33.35;17.15;;;3.20;99.90;;;;;;5025422;28;20041;-82
2022/12/02 04:32:39;;;;;;;34.00;16.65;;;3.20;99.90;;;;;;5032621;28;20484;-82
2022/12/02 04:35:05;;;;;;;32.85;16.50;;;3.20;99.90;;;;;;5023690;28;20048;-81
2022/12/02 04:37:31;;;;;;;29.67;17.08;;;3.20;99.90;;;;;;5040244;28;20077;-81
2022/12/02 04:39:56;;;;;;;31.17;17.27;;;4.50;99.90;;;;;;5023048;28;20048;-80
2022/12/02 04:42:22;;;;;;;30.75;16.65;;;3.10;99.90;;;;;;5040099;28;20042;-80
2022/12/02 04:44:48;;;;;;;36.30;17.17;;;3.10;99.90;;;;;;5032819;28;20036;-80
2022/12/02 04:47:13;;;;;;;34.05;16.63;;;3.10;99.90;;;;;;5029143;28;20133;-80
2022/12/02 04:49:39;;;;;;;33.75;16.55;;;3.10;99.90;;;;;;5028919;28;20040;-80
2022/12/02 04:52:05;;;;;;;34.05;16.80;;;3.10;99.90;;;;;;5032212;28;20107;-80
2022/12/02 04:54:30;;;;;;;32.08;16.02;;;2.50;99.90;;;;;;5015244;28;20087;-81
2022/12/02 04:56:56;;;;;;;32.70;16.27;;;3.70;99.90;;;;;;5023733;28;20037;-82
2022/12/02 04:59:22;;;;;;;31.92;15.75;;;3.50;99.90;;;;;;5038485;28;20055;-81
2022/12/02 05:01:47;;;;;;;31.20;15.25;;;2.90;99.90;;;;;;5023017;28;20443;-81
2022/12/02 05:04:13;;;;;;;35.92;16.17;;;3.90;99.90;;;;;;5030854;28;20065;-81
2022/12/02 05:06:39;;;;;;;33.00;16.17;;;4.20;99.90;;;;;;5030505;28;20485;-82
2022/12/02 05:09:04;;;;;;;33.15;15.15;;;3.20;99.90;;;;;;5040161;28;20041;-81
2022/12/02 05:11:30;;;;;;;32.17;15.27;;;3.20;99.90;;;;;;5031889;28;20088;-82
2022/12/02 05:13:56;;;;;;;32.58;16.83;;;4.10;99.90;;;;;;5031844;28;20045;-81
2022/12/02 05:16:21;;;;;;;32.53;15.80;;;3.10;99.90;;;;;;5030076;28;20950;-81
2022/12/02 05:18:47;;;;;;;29.40;14.90;;;2.90;99.90;;;;;;5040319;28;20045;-81
2022/12/02 05:21:12;;;;;;;32.55;16.27;;;2.90;99.90;;;;;;5008058;28;20033;-81
2022/12/02 05:23:38;;;;;;;33.33;16.20;;;2.90;99.90;;;;;;5022552;28;20131;-82
2022/12/02 05:26:04;;;;;;;33.05;15.45;;;4.10;99.90;;;;;;5041063;28;20033;-81
2022/12/02 05:28:29;;;;;;;34.53;15.32;;;2.90;99.90;;;;;;5021572;28;20034;-81
2022/12/02 05:30:55;;;;;;;33.35;15.95;;;2.90;99.90;;;;;;5023570;28;20045;-81
2022/12/02 05:33:21;;;;;;;34.55;16.50;;;2.80;99.90;;;;;;5022277;28;20041;-81
2022/12/02 05:35:46;;;;;;;31.48;15.60;;;3.40;99.90;;;;;;5021311;28;20044;-81
2022/12/02 05:38:12;;;;;;;32.90;16.13;;;2.80;99.90;;;;;;5043383;28;20045;-81
2022/12/02 05:40:38;;;;;;;34.58;16.30;;;2.80;99.90;;;;;;5026154;28;20045;-81
2022/12/02 05:43:19;;;;;;;35.13;15.35;;;2.80;99.90;;;;;;5034432;28;20048;-82
2022/12/02 05:45:45;;;;;;;39.22;16.45;;;3.80;99.90;;;;;;5027999;28;20135;-81
2022/12/02 05:48:12;;;;;;;33.88;16.30;;;2.80;99.90;;;;;;5043419;28;20092;-81
2022/12/02 05:50:39;;;;;;;32.95;17.63;;;3.50;99.90;;;;;;5034761;28;20049;-82
2022/12/02 05:53:06;;;;;;;33.88;16.58;;;3.30;99.90;;;;;;5034962;28;20472;-81
2022/12/02 05:55:35;;;;;;;38.92;16.75;;;2.80;99.90;;;;;;5024911;28;20033;-81
2022/12/02 05:58:03;;;;;;;34.38;15.60;;;2.80;99.90;;;;;;5044772;28;20045;-81
2022/12/02 06:00:32;;;;;;;40.15;16.67;;;3.10;99.90;;;;;;5051969;28;20091;-81
2022/12/02 06:03:01;;;;;;;33.05;16.85;;;2.70;99.90;;;;;;5035251;28;20068;-82
2022/12/02 06:05:30;;;;;;;34.38;16.20;;;2.70;99.90;;;;;;5027351;28;20056;-81
2022/12/02 06:08:19;;;;;;;35.38;16.63;;;2.70;99.90;;;;;;5034877;28;20037;-81
2022/12/02 06:10:51;;;;;;;35.13;16.05;;;2.70;99.90;;;;;;5036912;28;20068;-81
2022/12/02 06:13:27;;;;;;;34.78;17.20;;;3.40;99.90;;;;;;5029934;28;20041;-81
2022/12/02 06:15:53;;;;;;;38.20;17.58;;;2.70;99.90;;;;;;5043417;28;20845;-81
2022/12/02 06:18:28;;;;;;;34.10;16.98;;;2.70;99.90;;;;;;5025359;28;20041;-81
2022/12/02 06:20:56;;;;;;;35.25;17.55;;;2.70;99.90;;;;;;5059242;28;20125;-81
2022/12/02 06:23:25;;;;;;;40.15;18.17;;;3.50;99.90;;;;;;5034817;28;20439;-81
2022/12/02 06:25:52;;;;;;;38.40;17.38;;;2.60;99.90;;;;;;5043987;28;20115;-81
2022/12/02 06:28:30;;;;;;;41.75;18.80;;;2.60;99.90;;;;;;5034117;28;20037;-81
2022/12/02 06:31:00;;;;;;;43.10;19.77;;;2.60;99.90;;;;;;5027178;28;20052;-81
2022/12/02 06:33:31;;;;;;;44.83;20.75;;;2.60;99.90;;;;;;5026552;28;20040;-81
2022/12/02 06:36:01;;;;;;;39.42;18.23;;;2.60;99.90;;;;;;5059063;28;20059;-81
2022/12/02 06:38:30;;;;;;;40.50;20.00;;;3.30;99.90;;;;;;5032071;28;20037;-81
2022/12/02 06:40:59;;;;;;;45.40;20.38;;;2.50;99.90;;;;;;5039082;28;20037;-81
2022/12/02 06:43:28;;;;;;;46.45;21.80;;;2.50;99.90;;;;;;5026504;28;20051;-81
2022/12/02 06:45:54;;;;;;;46.08;20.25;;;2.50;99.90;;;;;;5025261;28;20041;-81
2022/12/02 06:48:26;;;;;;;47.13;20.92;;;4.30;99.90;;;;;;5040994;28;20463;-81
2022/12/02 06:50:54;;;;;;;46.40;19.90;;;2.50;99.90;;;;;;5044178;28;20045;-80
2022/12/02 06:53:38;;;;;;;39.70;19.80;;;3.40;99.90;;;;;;5033946;28;20091;-81
2022/12/02 06:56:27;;;;;;;40.75;19.52;;;2.50;99.90;;;;;;5034960;28;20045;-81
2022/12/02 06:58:56;;;;;;;39.90;19.30;;;2.50;99.90;;;;;;5024410;28;20048;-81
2022/12/02 07:01:53;;;;;;;47.33;20.33;;;2.50;99.90;;;;;;5077812;28;20466;-82
2022/12/02 07:04:44;;;;;;;42.22;19.33;;;2.40;99.90;;;;;;5024035;28;20053;-82
2022/12/02 07:07:21;;;;;;;51.60;21.98;;;2.50;99.90;;;;;;5023311;28;20049;-82
2022/12/02 07:10:14;;;;;;;48.63;20.52;;;2.40;99.90;;;;;;5022624;28;20045;-81
2022/12/02 07:12:43;;;;;;;51.10;22.35;;;2.40;99.90;;;;;;5002528;28;20044;-80
2022/12/02 07:15:08;;;;;;;42.75;19.95;;;3.90;99.90;;;;;;5021098;28;20045;-80
2022/12/02 07:17:36;;;;;;;47.17;20.77;;;2.40;99.90;;;;;;5005098;28;20044;-80
2022/12/02 07:20:05;;;;;;;50.88;21.83;;;3.30;99.90;;;;;;5003135;28;20041;-81
2022/12/02 07:22:47;;;;;;;57.05;22.02;;;2.40;99.90;;;;;;5018500;28;20045;-80
2022/12/02 07:25:34;;;;;;;54.25;21.85;;;2.40;99.90;;;;;;5011503;28;20139;-80
2022/12/02 07:28:14;;;;;;;54.63;22.95;;;2.40;99.90;;;;;;5018267;28;20041;-80
2022/12/02 07:30:41;;;;;;;55.70;23.33;;;2.40;99.90;;;;;;5002491;28;20116;-80
2022/12/02 07:33:07;;;;;;;54.17;22.70;;;2.90;99.90;;;;;;5019071;28;20048;-80
2022/12/02 07:35:33;;;;;;;57.85;23.10;;;2.40;99.90;;;;;;4988031;28;20045;-81
2022/12/02 07:37:58;;;;;;;56.42;22.92;;;2.40;99.90;;;;;;4970231;28;20085;-80
2022/12/02 07:40:24;;;;;;;56.67;23.92;;;2.40;99.90;;;;;;4970508;28;20045;-81
2022/12/02 07:42:50;;;;;;;56.22;24.52;;;2.40;99.90;;;;;;4972586;28;20057;-81
2022/12/02 07:45:18;;;;;;;68.03;29.92;;;2.40;99.90;;;;;;5019548;28;20116;-81
2022/12/02 07:47:44;;;;;;;57.13;23.90;;;2.30;99.90;;;;;;5000967;28;20037;-81
2022/12/02 07:50:12;;;;;;;60.72;24.85;;;4.10;99.90;;;;;;5010796;28;20101;-81
2022/12/02 07:52:38;;;;;;;61.92;23.95;;;3.50;99.90;;;;;;4986776;28;20049;-81
2022/12/02 07:55:04;;;;;;;65.45;24.02;;;2.40;99.90;;;;;;4972504;28;20045;-81
2022/12/02 07:57:30;;;;;;;70.53;25.52;;;2.30;99.90;;;;;;5019734;28;20098;-81
2022/12/02 07:59:56;;;;;;;59.22;23.65;;;3.70;99.90;;;;;;4973548;28;20050;-84
2022/12/02 08:02:22;;;;;;;64.53;24.13;;;2.40;99.90;;;;;;5002765;28;20045;-80
2022/12/02 08:04:48;;;;;;;60.60;25.23;;;2.40;99.90;;;;;;4988105;28;20045;-81
2022/12/02 08:07:13;;;;;;;63.50;25.42;;;3.70;99.90;;;;;;5012365;28;20495;-82
2022/12/02 08:09:39;;;;;;;64.20;24.40;;;2.40;99.90;;;;;;4970631;28;20038;-83
2022/12/02 08:12:05;;;;;;;62.83;22.60;;;2.50;99.90;;;;;;4962942;28;20033;-81
2022/12/02 08:14:31;;;;;;;74.78;26.98;;;2.50;99.90;;;;;;4999045;28;20048;-81
2022/12/02 08:16:56;;;;;;;74.55;25.60;;;2.50;99.90;;;;;;4973254;28;20033;-84
2022/12/02 08:19:22;;;;;;;70.07;25.92;;;2.50;99.90;;;;;;4960637;28;20042;-81
2022/12/02 08:21:48;;;;;;;59.53;24.00;;;4.30;99.90;;;;;;4988624;28;20038;-84
2022/12/02 08:24:14;;;;;;;54.17;23.30;;;2.60;99.90;;;;;;4992543;28;20121;-86
2022/12/02 08:26:41;;;;;;;59.33;23.63;;;2.50;99.90;;;;;;4993032;28;20064;-84
2022/12/02 08:29:06;;;;;;;61.67;25.27;;;2.70;99.90;;;;;;4991252;28;20033;-86
2022/12/02 08:31:32;;;;;;;61.45;24.85;;;2.50;99.90;;;;;;4991677;28;20402;-85
2022/12/02 08:33:58;;;;;;;60.92;24.70;;;3.30;99.90;;;;;;4991663;28;20048;-89
2022/12/02 08:36:24;;;;;;;60.83;23.95;;;2.50;99.90;;;;;;4993098;28;20095;-84
2022/12/02 08:38:49;;;;;;;61.55;24.08;;;3.90;99.90;;;;;;4974001;28;20503;-87
2022/12/02 08:41:15;;;;;;;55.60;23.48;;;4.10;99.90;;;;;;4960844;28;20050;-88
2022/12/02 08:43:42;;;;;;;63.15;25.27;;;3.70;99.90;;;;;;5001742;28;20041;-84
2022/12/02 08:46:08;;;;;;;60.17;24.35;;;2.50;99.90;;;;;;4995287;28;20553;-82
2022/12/02 08:48:34;;;;;;;61.80;25.35;;;2.50;99.90;;;;;;5004956;28;20045;-91
2022/12/02 08:51:00;;;;;;;60.30;25.90;;;4.10;99.90;;;;;;4973297;28;20547;-83
2022/12/02 08:53:26;;;;;;;61.92;26.13;;;4.00;99.90;;;;;;4991054;28;20049;-84
2022/12/02 08:55:51;;;;;;;54.78;24.48;;;2.60;99.90;;;;;;4995917;28;20045;-86
2022/12/02 08:58:17;;;;;;;59.00;23.83;;;3.30;99.90;;;;;;4997781;28;20041;-83
2022/12/02 09:00:43;;;;;;;54.38;23.58;;;2.60;99.90;;;;;;4992121;28;20050;-83
2022/12/02 09:03:10;;;;;;;58.70;23.58;;;2.60;99.90;;;;;;4974830;28;20045;-83
2022/12/02 09:05:37;;;;;;;57.90;23.80;;;2.70;99.90;;;;;;4993185;28;20064;-84
2022/12/02 09:08:04;;;;;;;50.50;21.83;;;4.10;99.90;;;;;;4972333;28;20030;-85
2022/12/02 09:10:30;;;;;;;55.78;23.48;;;2.60;99.90;;;;;;5006933;28;20049;-84
2022/12/02 09:12:56;;;;;;;58.83;24.73;;;2.60;99.90;;;;;;4974650;28;20038;-83
2022/12/02 09:15:22;;;;;;;56.47;23.13;;;2.60;99.90;;;;;;4988025;28;20501;-85
2022/12/02 09:17:48;;;;;;;59.10;23.08;;;2.70;99.90;;;;;;4975799;28;20452;-89
2022/12/02 09:20:16;;;;;;;54.80;22.23;;;3.10;99.90;;;;;;5012764;28;20116;-87
2022/12/02 09:22:44;;;;;;;60.55;23.60;;;2.70;99.90;;;;;;4993061;28;20046;-85
2022/12/02 09:25:10;;;;;;;55.85;24.30;;;2.70;99.90;;;;;;4976826;28;20061;-85
2022/12/02 09:27:40;;;;;;;54.33;23.65;;;3.70;99.90;;;;;;4975226;28;20030;-86
2022/12/02 09:30:07;;;;;;;54.90;22.05;;;2.70;99.90;;;;;;5008350;28;20041;-85
2022/12/02 09:32:33;;;;;;;53.88;22.02;;;2.70;99.90;;;;;;4993188;28;20130;-84
2022/12/02 09:34:59;;;;;;;54.78;21.73;;;3.60;99.90;;;;;;4991970;28;20505;-85
2022/12/02 09:37:24;;;;;;;52.30;21.77;;;3.00;99.90;;;;;;5009863;28;20619;-86
2022/12/02 09:39:50;;;;;;;59.55;23.75;;;2.70;99.90;;;;;;4964760;28;20512;-85
2022/12/02 09:42:17;;;;;;;55.25;22.00;;;3.20;99.90;;;;;;4972869;28;20049;-90
2022/12/02 09:44:43;;;;;;;54.15;20.85;;;3.30;99.90;;;;;;4957265;28;20037;-84
2022/12/02 09:47:10;;;;;;;51.97;21.83;;;2.70;99.90;;;;;;4992676;28;20076;-85
2022/12/02 09:49:36;;;;;;;51.20;21.75;;;2.70;99.90;;;;;;4991030;28;20069;-86
2022/12/02 09:52:05;;;;;;;53.72;21.63;;;3.70;99.90;;;;;;4973798;28;20480;-85
2022/12/02 09:54:32;;;;;;;56.92;22.35;;;2.70;99.90;;;;;;4988126;28;20045;-84
2022/12/02 09:56:58;;;;;;;53.90;21.73;;;3.60;99.90;;;;;;5003308;28;20042;-85
2022/12/02 09:59:24;;;;;;;51.53;20.35;;;2.80;99.90;;;;;;4988436;28;20461;-85
2022/12/02 10:01:50;;;;;;;58.40;22.30;;;2.80;99.90;;;;;;4956828;28;20087;-85
2022/12/02 10:04:19;;;;;;;51.72;21.33;;;2.80;99.90;;;;;;4962352;28;20037;-86
2022/12/02 10:06:46;;;;;;;54.85;21.45;;;3.10;99.90;;;;;;4970671;28;20038;-87
2022/12/02 10:09:30;;;;;;;54.17;22.45;;;2.80;99.90;;;;;;4992854;28;20060;-87
2022/12/02 10:11:56;;;;;;;53.45;22.65;;;2.90;99.90;;;;;;4976362;28;20045;-87
2022/12/02 10:14:22;;;;;;;62.45;21.73;;;4.00;99.90;;;;;;5025509;28;20033;-86
2022/12/02 10:16:49;;;;;;;57.88;23.33;;;3.30;99.90;;;;;;4981842;28;20049;-86
2022/12/02 10:19:17;;;;;;;58.15;26.55;;;3.00;99.90;;;;;;4994400;28;20044;-85
2022/12/02 10:21:43;;;;;;;54.60;23.80;;;3.10;99.90;;;;;;4991557;28;20057;-83
2022/12/02 10:24:11;;;;;;;69.47;31.02;;;3.10;99.90;;;;;;4991920;28;20379;-80
2022/12/02 10:26:48;;;;;;;63.28;26.10;;;3.20;99.90;;;;;;4991400;28;20425;-77
2022/12/02 10:29:34;;;;;;;54.38;22.77;;;3.10;99.90;;;;;;4988488;28;20121;-79
2022/12/02 10:32:02;;;;;;;63.10;24.73;;;3.10;99.90;;;;;;4990089;28;20061;-79
2022/12/02 10:34:30;;;;;;;56.10;23.40;;;3.20;99.90;;;;;;4972074;28;20042;-78
2022/12/02 10:37:13;;;;;;;59.75;23.55;;;3.00;99.90;;;;;;4989553;28;20048;-84
2022/12/02 10:39:39;;;;;;;57.22;23.60;;;3.00;99.90;;;;;;4987883;28;20051;-84
2022/12/02 10:42:07;;;;;;;56.92;23.35;;;3.80;99.90;;;;;;4957185;28;20503;-79
2022/12/02 10:44:38;;;;;;;54.65;22.13;;;3.10;99.90;;;;;;5000426;28;20129;-80
2022/12/02 10:47:21;;;;;;;59.40;22.75;;;3.10;99.90;;;;;;5004528;28;20043;-84
2022/12/02 10:49:55;;;;;;;56.65;23.10;;;3.40;99.90;;;;;;4988755;28;20124;-80
2022/12/02 10:52:45;;;;;;;49.30;20.25;;;3.20;99.90;;;;;;4988234;28;20045;-81
2022/12/02 10:55:12;;;;;;;50.30;21.33;;;3.20;99.90;;;;;;4996551;28;20135;-88
2022/12/02 10:57:38;;;;;;;50.20;21.42;;;3.20;99.90;;;;;;4988050;28;20477;-83
2022/12/02 11:00:13;;;;;;;50.13;20.23;;;3.20;99.90;;;;;;4987681;28;20115;-85
2022/12/02 11:02:47;;;;;;;50.65;20.40;;;3.20;99.90;;;;;;5004385;28;20485;-82
2022/12/02 11:05:17;;;;;;;52.70;20.60;;;3.20;99.90;;;;;;5001115;28;20069;-78
2022/12/02 11:07:55;;;;;;;56.03;22.92;;;3.20;99.90;;;;;;4988810;28;20389;-81
2022/12/02 11:10:42;;;;;;;58.80;26.90;;;4.20;99.90;;;;;;4987262;28;20098;-80
2022/12/02 11:13:16;;;;;;;47.80;19.95;;;3.30;99.90;;;;;;5002218;28;20049;-79
2022/12/02 11:15:51;;;;;;;48.97;19.75;;;3.20;99.90;;;;;;5002353;28;20049;-80
2022/12/02 11:18:25;;;;;;;54.70;19.48;;;3.20;99.90;;;;;;5003629;28;20944;-80
2022/12/02 11:21:26;;;;;;;48.00;20.42;;;3.20;99.90;;;;;;5002991;28;20495;-80
2022/12/02 11:24:21;;;;;;;50.65;20.67;;;3.20;99.90;;;;;;4981115;28;20628;-81
2022/12/02 11:26:59;;;;;;;50.53;20.50;;;3.20;99.90;;;;;;4984700;28;20670;-80
2022/12/02 11:29:26;;;;;;;52.08;21.70;;;3.20;99.90;;;;;;4988231;28;20042;-80
2022/12/02 11:32:18;;;;;;;55.00;21.60;;;3.20;99.90;;;;;;4970407;28;20034;-81
2022/12/02 11:34:47;;;;;;;49.50;20.98;;;3.20;99.90;;;;;;4984113;28;20095;-81
2022/12/02 11:37:28;;;;;;;55.40;23.95;;;3.20;99.90;;;;;;4997963;28;20046;-80
2022/12/02 11:40:03;;;;;;;49.22;20.15;;;3.20;99.90;;;;;;4985965;28;20045;-81
2022/12/02 11:42:30;;;;;;;54.90;25.23;;;4.40;99.90;;;;;;5003894;28;20037;-82
2022/12/02 11:45:14;;;;;;;51.88;21.63;;;3.20;99.90;;;;;;5000956;28;20357;-80
2022/12/02 11:47:52;;;;;;;44.15;19.77;;;3.90;99.90;;;;;;4976906;28;20041;-80
2022/12/02 11:50:22;;;;;;;45.60;22.25;;;3.10;99.90;;;;;;4986667;28;20103;-81
2022/12/02 11:53:03;;;;;;;49.15;22.60;;;3.10;99.90;;;;;;4988439;28;20132;-81
2022/12/02 11:55:32;;;;;;;58.03;27.50;;;3.10;99.90;;;;;;4991664;28;20493;-82
2022/12/02 11:57:58;;;;;;;45.35;20.85;;;3.10;99.90;;;;;;4987328;28;20533;-80
2022/12/02 12:00:27;;;;;;;57.58;27.70;;;3.10;99.90;;;;;;4988423;28;20136;-81
2022/12/02 12:03:06;;;;;;;53.03;24.73;;;3.10;99.90;;;;;;4997809;28;20075;-81
2022/12/02 12:05:33;;;;;;;41.72;19.38;;;3.10;99.90;;;;;;4999091;28;20041;-81
2022/12/02 12:07:58;;;;;;;46.53;23.65;;;3.10;99.90;;;;;;4989757;28;20076;-82
2022/12/02 12:10:36;;;;;;;45.67;20.88;;;3.10;99.90;;;;;;4991751;28;20041;-81
2022/12/02 12:13:08;;;;;;;47.50;20.67;;;3.10;99.90;;;;;;4994039;28;20049;-82
2022/12/02 12:15:58;;;;;;;42.13;21.60;;;3.10;99.90;;;;;;4968509;28;20049;-82
2022/12/02 12:18:42;;;;;;;44.75;20.58;;;3.10;99.90;;;;;;5029052;28;20041;-78
2022/12/02 12:21:08;;;;;;;48.90;22.08;;;3.10;99.90;;;;;;4990421;28;20468;-80
2022/12/02 12:23:44;;;;;;;57.95;24.15;;;3.60;99.90;;;;;;4985699;28;20042;-77
2022/12/02 12:26:33;;;;;;;56.03;25.02;;;3.10;99.90;;;;;;4972133;28;20474;-79
2022/12/02 12:29:04;;;;;;;49.35;21.98;;;3.10;99.90;;;;;;5008148;28;20052;-79
2022/12/02 12:31:29;;;;;;;55.40;24.73;;;3.00;99.90;;;;;;4973945;28;20050;-81
2022/12/02 12:33:55;;;;;;;58.33;26.20;;;3.00;99.90;;;;;;4990399;28;20091;-80
2022/12/02 12:36:21;;;;;;;56.17;24.75;;;3.00;99.90;;;;;;4988875;28;20052;-79
2022/12/02 12:38:46;;;;;;;53.30;24.23;;;3.00;99.90;;;;;;4990410;28;20049;-81
2022/12/02 12:41:12;;;;;;;60.33;25.00;;;3.80;99.90;;;;;;4973292;28;20042;-80
2022/12/02 12:43:38;;;;;;;64.60;28.63;;;3.00;99.90;;;;;;4992752;28;20042;-80
2022/12/02 12:46:03;;;;;;;68.15;29.92;;;3.00;99.90;;;;;;4960475;28;20096;-84